createdAt,value
2018-07-09T00:01:08.246Z,76.20
2018-07-09T00:03:36.338Z,76.80
2018-07-09T00:06:04.638Z,76.60
2018-07-09T00:08:32.700Z,76.40
2018-07-09T00:11:02.868Z,75.70
2018-07-09T00:13:31.885Z,75.80
2018-07-09T00:16:00.371Z,75.30
2018-07-09T00:18:28.408Z,76.10
2018-07-09T00:20:56.448Z,76.00
2018-07-09T00:23:24.476Z,76.00
2018-07-09T00:25:53.307Z,76.00
2018-07-09T00:28:21.781Z,75.80
2018-07-09T00:30:49.650Z,77.00
2018-07-09T00:33:18.003Z,76.60
2018-07-09T00:35:46.343Z,76.40
2018-07-09T00:38:14.332Z,76.20
2018-07-09T00:40:42.506Z,77.00
2018-07-09T00:43:10.450Z,76.50
2018-07-09T00:45:38.677Z,77.60
2018-07-09T00:48:06.513Z,77.30
2018-07-09T00:50:34.697Z,76.60
2018-07-09T00:53:03.068Z,77.10
2018-07-09T00:55:31.185Z,77.40
2018-07-09T00:57:59.676Z,77.30
2018-07-09T01:00:27.680Z,77.00
2018-07-09T01:02:59.627Z,76.80
2018-07-09T01:05:27.745Z,76.80
2018-07-09T01:07:55.884Z,77.20
2018-07-09T01:10:23.955Z,77.70
2018-07-09T01:12:51.910Z,78.40
2018-07-09T01:15:19.832Z,79.90
2018-07-09T01:17:59.548Z,78.50
2018-07-09T01:22:55.477Z,78.20
2018-07-09T01:25:23.501Z,78.90
2018-07-09T01:27:51.599Z,78.70
2018-07-09T01:30:19.699Z,79.10
2018-07-09T01:32:47.610Z,79.10
2018-07-09T01:35:15.513Z,79.30
2018-07-09T01:37:43.426Z,80.00
2018-07-09T01:40:11.553Z,83.30
2018-07-09T01:42:39.756Z,80.30
2018-07-09T01:45:07.892Z,79.80
2018-07-09T01:47:36.143Z,80.30
2018-07-09T01:50:04.174Z,80.30
2018-07-09T01:52:32.327Z,80.50
2018-07-09T01:55:00.831Z,81.10
2018-07-09T01:57:28.893Z,81.00
2018-07-09T01:59:57.057Z,81.10
2018-07-09T02:02:25.064Z,81.20
2018-07-09T02:07:20.732Z,83.80
2018-07-09T02:09:48.985Z,83.20
2018-07-09T02:12:16.960Z,81.50
2018-07-09T02:14:44.973Z,81.10
2018-07-09T02:19:40.786Z,81.10
2018-07-09T02:22:08.668Z,82.10
2018-07-09T02:24:36.801Z,81.30
2018-07-09T02:27:04.800Z,83.10
2018-07-09T02:29:32.960Z,81.50
2018-07-09T02:32:01.076Z,82.40
2018-07-09T02:34:29.158Z,83.40
2018-07-09T02:36:57.816Z,82.60
2018-07-09T02:39:25.678Z,85.20
2018-07-09T02:41:53.838Z,82.60
2018-07-09T02:44:23.040Z,83.00
2018-07-09T02:46:51.446Z,80.50
2018-07-09T02:49:19.848Z,80.50
2018-07-09T02:51:48.285Z,80.50
2018-07-09T02:54:16.775Z,80.80
2018-07-09T02:56:44.757Z,81.30
2018-07-09T02:59:13.308Z,81.20
2018-07-09T03:01:41.184Z,81.20
2018-07-09T03:04:09.913Z,81.50
2018-07-09T03:06:37.800Z,81.60
2018-07-09T03:09:06.676Z,81.60
2018-07-09T03:11:35.040Z,81.80
2018-07-09T03:14:03.019Z,83.50
2018-07-09T03:16:31.281Z,83.60
2018-07-09T03:18:59.635Z,81.70
2018-07-09T03:21:27.729Z,81.40
2018-07-09T03:23:55.674Z,81.40
2018-07-09T03:26:23.640Z,81.70
2018-07-09T03:28:51.793Z,81.80
2018-07-09T03:31:19.807Z,82.10
2018-07-09T03:33:47.974Z,81.70
2018-07-09T03:36:17.403Z,81.60
2018-07-09T03:38:45.162Z,85.50
2018-07-09T03:41:13.259Z,83.10
2018-07-09T03:43:41.351Z,80.90
2018-07-09T03:46:09.313Z,81.50
2018-07-09T03:48:37.363Z,80.90
2018-07-09T03:51:05.523Z,80.90
2018-07-09T03:53:33.755Z,81.10
2018-07-09T03:56:02.010Z,81.10
2018-07-09T03:58:30.069Z,81.10
2018-07-09T04:03:26.626Z,82.60
2018-07-09T04:05:54.705Z,83.40
2018-07-09T04:08:22.669Z,82.60
2018-07-09T04:10:50.501Z,82.60
2018-07-09T04:13:18.488Z,80.20
2018-07-09T04:15:46.352Z,79.40
2018-07-09T04:18:14.238Z,79.20
2018-07-09T04:20:42.351Z,79.40
2018-07-09T04:23:10.229Z,79.50
2018-07-09T04:25:38.263Z,79.70
2018-07-09T04:28:06.245Z,80.00
2018-07-09T04:30:34.222Z,80.10
2018-07-09T04:33:02.369Z,81.80
2018-07-09T04:35:30.363Z,80.60
2018-07-09T04:37:58.385Z,78.00
2018-07-09T04:40:26.631Z,77.80
2018-07-09T04:42:54.534Z,78.10
2018-07-09T04:45:22.608Z,78.40
2018-07-09T04:47:50.564Z,78.40
2018-07-09T04:50:18.502Z,78.90
2018-07-09T04:52:46.427Z,78.20
2018-07-09T04:55:14.489Z,79.50
2018-07-09T04:57:42.467Z,77.40
2018-07-09T05:00:10.436Z,77.30
2018-07-09T05:02:38.454Z,77.20
2018-07-09T05:05:06.482Z,76.70
2018-07-09T05:07:34.504Z,76.70
2018-07-09T05:10:02.902Z,76.60
2018-07-09T05:12:30.898Z,76.60
2018-07-09T05:14:59.050Z,76.40
2018-07-09T05:17:27.011Z,76.20
2018-07-09T05:19:54.998Z,75.90
2018-07-09T05:24:51.005Z,75.70
2018-07-09T05:27:18.943Z,74.00
2018-07-09T05:29:46.882Z,74.30
2018-07-09T05:32:14.782Z,73.90
2018-07-09T05:34:42.786Z,74.20
2018-07-09T05:37:10.850Z,73.40
2018-07-09T05:39:39.663Z,73.80
2018-07-09T05:42:07.649Z,72.60
2018-07-09T05:44:36.197Z,72.00
2018-07-09T05:47:04.346Z,71.90
2018-07-09T05:49:32.776Z,70.00
2018-07-09T05:52:01.068Z,68.40
2018-07-09T05:54:29.108Z,68.50
2018-07-09T05:56:57.283Z,64.90
2018-07-09T05:59:25.286Z,64.30
2018-07-09T06:01:53.274Z,64.00
2018-07-09T06:04:21.371Z,62.60
2018-07-09T06:06:50.247Z,61.60
2018-07-09T06:09:18.147Z,61.00
2018-07-09T06:11:46.165Z,64.60
2018-07-09T06:14:14.163Z,60.20
2018-07-09T06:16:42.222Z,63.80
2018-07-09T06:19:10.180Z,62.90
2018-07-09T06:24:06.310Z,58.70
2018-07-09T06:26:34.385Z,59.50
2018-07-09T06:29:02.519Z,56.30
2018-07-09T06:31:30.770Z,55.00
2018-07-09T06:33:58.865Z,53.40
2018-07-09T06:36:27.375Z,50.20
2018-07-09T06:38:55.461Z,49.40
2018-07-09T06:41:23.446Z,48.50
2018-07-09T06:43:51.698Z,48.20
2018-07-09T06:46:19.887Z,47.60
2018-07-09T06:48:47.821Z,47.00
2018-07-09T06:51:15.761Z,45.80
2018-07-09T06:53:43.677Z,45.30
2018-07-09T06:56:11.677Z,44.20
2018-07-09T06:58:39.646Z,43.30
2018-07-09T07:01:07.613Z,43.30
2018-07-09T07:03:35.643Z,43.30
2018-07-09T07:06:04.122Z,43.10
2018-07-09T07:08:32.532Z,43.70
2018-07-09T07:11:00.686Z,42.60
2018-07-09T07:13:28.832Z,41.60
2018-07-09T07:15:56.842Z,40.50
2018-07-09T07:18:24.745Z,40.10
2018-07-09T07:20:52.899Z,39.70
2018-07-09T07:23:21.993Z,41.50
2018-07-09T07:25:50.035Z,42.40
2018-07-09T07:28:18.295Z,44.40
2018-07-09T07:30:47.998Z,43.80
2018-07-09T07:33:19.256Z,43.90
2018-07-09T07:35:47.354Z,43.40
2018-07-09T07:38:15.343Z,44.10
2018-07-09T07:40:46.743Z,43.80
2018-07-09T07:43:14.805Z,42.80
2018-07-09T07:45:42.936Z,42.10
2018-07-09T07:48:10.960Z,42.00
2018-07-09T07:50:38.928Z,41.80
2018-07-09T07:53:06.820Z,42.50
2018-07-09T07:55:34.929Z,41.00
2018-07-09T07:58:03.036Z,41.50
2018-07-09T08:00:31.268Z,42.80
2018-07-09T08:02:59.499Z,43.10
2018-07-09T08:05:27.375Z,44.10
2018-07-09T08:07:55.331Z,43.80
2018-07-09T08:10:23.469Z,44.70
2018-07-09T08:15:19.418Z,44.40
2018-07-09T08:17:47.502Z,44.70
2018-07-09T08:20:15.584Z,44.90
2018-07-09T08:22:43.478Z,44.70
2018-07-09T08:25:11.758Z,43.40
2018-07-09T08:27:39.519Z,43.30
2018-07-09T08:30:07.682Z,42.10
2018-07-09T08:32:36.190Z,42.20
2018-07-09T08:35:04.508Z,42.10
2018-07-09T08:37:32.577Z,41.50
2018-07-09T08:40:00.856Z,42.20
2018-07-09T08:42:28.834Z,42.20
2018-07-09T08:44:56.996Z,42.80
2018-07-09T08:47:24.974Z,40.40
2018-07-09T08:49:52.925Z,39.50
2018-07-09T08:52:21.966Z,40.70
2018-07-09T08:54:49.946Z,39.00
2018-07-09T08:57:18.053Z,39.70
2018-07-09T08:59:46.011Z,39.40
2018-07-09T09:04:46.206Z,40.90
2018-07-09T09:07:14.067Z,41.00
2018-07-09T09:09:42.026Z,42.10
2018-07-09T09:12:10.225Z,43.30
2018-07-09T09:14:38.308Z,42.50
2018-07-09T09:17:06.449Z,41.90
2018-07-09T09:19:34.508Z,42.50
2018-07-09T09:22:02.642Z,41.90
2018-07-09T09:24:32.881Z,40.90
2018-07-09T09:27:01.006Z,41.50
2018-07-09T09:29:29.061Z,41.80
2018-07-09T09:31:57.104Z,41.70
2018-07-09T09:34:25.365Z,42.50
2018-07-09T09:36:53.270Z,42.50
2018-07-09T09:39:21.323Z,42.30
2018-07-09T09:41:49.272Z,42.50
2018-07-09T09:44:17.181Z,41.90
2018-07-09T09:46:45.168Z,42.30
2018-07-09T09:49:13.079Z,40.10
2018-07-09T09:51:41.081Z,40.70
2018-07-09T09:54:09.468Z,42.50
2018-07-09T09:56:37.409Z,41.80
2018-07-09T09:59:05.656Z,42.40
2018-07-09T10:01:33.568Z,42.20
2018-07-09T10:04:01.610Z,41.00
2018-07-09T10:06:29.702Z,41.00
2018-07-09T10:08:57.948Z,41.60
2018-07-09T10:11:25.913Z,41.50
2018-07-09T10:13:54.017Z,40.40
2018-07-09T10:16:23.500Z,41.20
2018-07-09T10:18:51.571Z,42.90
2018-07-09T10:21:19.449Z,42.40
2018-07-09T10:23:47.418Z,41.00
2018-07-09T10:26:15.421Z,41.20
2018-07-09T10:28:43.417Z,40.00
2018-07-09T10:31:11.493Z,39.60
2018-07-09T10:33:39.358Z,40.30
2018-07-09T10:36:07.470Z,40.30
2018-07-09T10:38:35.489Z,40.30
2018-07-09T10:41:03.845Z,40.90
2018-07-09T10:43:32.789Z,40.50
2018-07-09T10:46:01.136Z,40.90
2018-07-09T10:48:30.943Z,41.20
2018-07-09T10:51:00.313Z,40.70
2018-07-09T10:53:29.252Z,40.90
2018-07-09T10:55:58.167Z,40.80
2018-07-09T10:58:27.831Z,39.80
2018-07-09T11:00:56.484Z,40.40
2018-07-09T11:03:24.639Z,41.60
2018-07-09T11:05:52.825Z,41.40
2018-07-09T11:08:26.001Z,41.90
2018-07-09T11:10:53.988Z,40.90
2018-07-09T11:13:21.992Z,40.30
2018-07-09T11:15:51.371Z,38.10
2018-07-09T11:18:19.373Z,38.40
2018-07-09T11:20:47.550Z,39.10
2018-07-09T11:23:15.494Z,37.90
2018-07-09T11:28:11.561Z,37.90
2018-07-09T11:30:39.555Z,38.70
2018-07-09T11:33:07.862Z,38.90
2018-07-09T11:35:36.030Z,39.00
2018-07-09T11:38:05.421Z,40.60
2018-07-09T11:40:33.806Z,41.60
2018-07-09T11:43:01.820Z,39.20
2018-07-09T11:45:30.308Z,38.60
2018-07-09T11:47:59.268Z,39.00
2018-07-09T11:50:28.908Z,37.10
2018-07-09T11:52:58.167Z,35.50
2018-07-09T11:55:26.931Z,36.00
2018-07-09T11:57:55.079Z,34.90
2018-07-09T12:00:23.076Z,35.00
2018-07-09T12:02:51.161Z,37.50
2018-07-09T12:05:19.042Z,33.40
2018-07-09T12:07:47.110Z,33.10
2018-07-09T12:10:15.125Z,34.20
2018-07-09T12:12:43.084Z,33.80
2018-07-09T12:15:11.017Z,34.90
2018-07-09T12:17:38.954Z,34.70
2018-07-09T12:20:06.942Z,35.10
2018-07-09T12:22:35.038Z,34.70
2018-07-09T12:25:04.021Z,34.30
2018-07-09T12:27:32.066Z,34.50
2018-07-09T12:30:00.177Z,35.40
2018-07-09T12:32:28.248Z,34.60
2018-07-09T12:34:56.579Z,34.80
2018-07-09T12:37:24.663Z,33.50
2018-07-09T12:40:02.994Z,34.10
2018-07-09T12:42:31.074Z,33.60
2018-07-09T12:44:59.254Z,34.60
2018-07-09T12:47:27.336Z,34.10
2018-07-09T12:50:02.207Z,35.20
2018-07-09T12:54:58.888Z,33.90
2018-07-09T12:57:27.253Z,34.60
2018-07-09T12:59:55.638Z,34.10
2018-07-09T13:02:23.696Z,35.20
2018-07-09T13:04:51.773Z,35.00
2018-07-09T13:07:19.760Z,33.50
2018-07-09T13:09:47.681Z,35.30
2018-07-09T13:12:23.057Z,33.00
2018-07-09T13:14:51.274Z,33.40
2018-07-09T13:17:20.600Z,34.20
2018-07-09T13:19:48.702Z,32.60
2018-07-09T13:22:16.680Z,34.40
2018-07-09T13:24:48.966Z,33.40
2018-07-09T13:27:17.081Z,33.30
2018-07-09T13:29:45.639Z,33.00
2018-07-09T13:32:13.996Z,32.50
2018-07-09T13:34:42.806Z,31.90
2018-07-09T13:37:11.061Z,33.10
2018-07-09T13:39:39.168Z,32.30
2018-07-09T13:42:07.450Z,33.30
2018-07-09T13:44:35.710Z,34.00
2018-07-09T13:47:03.896Z,33.40
2018-07-09T13:49:32.234Z,34.00
2018-07-09T13:52:00.438Z,33.90
2018-07-09T13:54:29.035Z,31.80
2018-07-09T13:57:03.626Z,31.60
2018-07-09T13:59:31.644Z,32.10
2018-07-09T14:01:59.668Z,32.70
2018-07-09T14:04:27.564Z,33.60
2018-07-09T14:06:59.041Z,32.60
2018-07-09T14:09:27.155Z,31.60
2018-07-09T14:11:55.163Z,32.40
2018-07-09T14:14:23.628Z,29.90
2018-07-09T14:16:51.560Z,29.40
2018-07-09T14:20:38.324Z,30.10
2018-07-09T14:23:07.458Z,29.20
2018-07-09T14:25:35.638Z,28.60
2018-07-09T14:28:03.712Z,28.80
2018-07-09T14:30:31.776Z,29.00
2018-07-09T14:32:59.994Z,27.90
2018-07-09T14:35:28.057Z,28.00
2018-07-09T14:37:57.467Z,28.40
2018-07-09T14:40:26.206Z,28.80
2018-07-09T14:42:54.112Z,28.00
2018-07-09T14:45:22.186Z,28.10
2018-07-09T14:47:50.179Z,28.70
2018-07-09T14:50:18.094Z,27.40
2018-07-09T14:52:46.451Z,28.00
2018-07-09T14:55:14.591Z,26.90
2018-07-09T14:57:42.578Z,27.90
2018-07-09T15:00:10.713Z,26.60
2018-07-09T15:02:39.164Z,27.50
2018-07-09T15:05:19.341Z,26.50
2018-07-09T15:07:47.436Z,27.70
2018-07-09T15:10:15.386Z,27.20
2018-07-09T15:12:43.609Z,26.50
2018-07-09T15:15:12.241Z,27.20
2018-07-09T15:17:40.342Z,27.70
2018-07-09T15:20:09.536Z,26.80
2018-07-09T15:22:37.640Z,26.70
2018-07-09T15:27:34.449Z,27.20
2018-07-09T15:30:02.532Z,26.80
2018-07-09T15:32:43.179Z,27.10
2018-07-09T15:35:12.090Z,27.30
2018-07-09T15:37:40.139Z,27.50
2018-07-09T15:40:08.315Z,27.40
2018-07-09T15:42:54.516Z,28.50
2018-07-09T15:45:22.285Z,27.20
2018-07-09T15:47:50.143Z,27.10
2018-07-09T15:52:56.249Z,26.20
2018-07-09T15:55:24.241Z,26.70
2018-07-09T15:57:52.458Z,27.30
2018-07-09T16:00:20.658Z,26.70
2018-07-09T16:02:48.628Z,27.30
2018-07-09T16:05:17.589Z,27.20
2018-07-09T16:07:45.557Z,26.00
2018-07-09T16:10:13.595Z,28.20
2018-07-09T16:12:41.722Z,27.40
2018-07-09T16:15:09.985Z,24.70
2018-07-09T16:17:38.227Z,24.70
2018-07-09T16:20:14.447Z,26.10
2018-07-09T16:22:56.937Z,24.30
2018-07-09T16:25:25.054Z,23.30
2018-07-09T16:27:52.968Z,23.70
2018-07-09T16:30:20.867Z,24.50
2018-07-09T16:32:48.865Z,23.20
2018-07-09T16:35:16.725Z,23.10
2018-07-09T16:37:44.795Z,24.70
2018-07-09T16:40:12.801Z,25.80
2018-07-09T16:42:40.776Z,23.90
2018-07-09T16:47:36.469Z,26.30
2018-07-09T16:50:04.442Z,25.50
2018-07-09T16:52:33.303Z,25.80
2018-07-09T16:55:01.761Z,25.60
2018-07-09T16:57:30.288Z,27.50
2018-07-09T16:59:58.887Z,24.50
2018-07-09T17:02:27.353Z,24.90
2018-07-09T17:04:55.567Z,25.80
2018-07-09T17:07:23.530Z,24.50
2018-07-09T17:09:51.541Z,24.90
2018-07-09T17:12:19.551Z,25.60
2018-07-09T17:14:47.639Z,26.40
2018-07-09T17:17:15.682Z,26.40
2018-07-09T17:19:44.848Z,26.20
2018-07-09T17:22:12.785Z,26.40
2018-07-09T17:24:40.961Z,25.90
2018-07-09T17:27:09.069Z,27.00
2018-07-09T17:29:36.986Z,27.30
2018-07-09T17:32:05.560Z,27.70
2018-07-09T17:34:34.046Z,27.30
2018-07-09T17:37:02.394Z,27.70
2018-07-09T17:39:30.542Z,27.90
2018-07-09T17:41:59.249Z,28.70
2018-07-09T17:44:28.352Z,29.40
2018-07-09T17:46:57.249Z,31.10
2018-07-09T17:49:25.298Z,33.60
2018-07-09T17:51:53.455Z,37.20
2018-07-09T17:54:21.667Z,40.50
2018-07-09T17:56:49.559Z,42.60
2018-07-09T17:59:17.561Z,43.80
2018-07-09T18:01:45.686Z,44.60
2018-07-09T18:04:13.682Z,45.30
2018-07-09T18:06:41.986Z,45.80
2018-07-09T18:09:10.887Z,46.10
2018-07-09T18:11:38.944Z,46.50
2018-07-09T18:14:07.120Z,46.70
2018-07-09T18:16:36.097Z,46.90
2018-07-09T18:19:04.104Z,47.10
2018-07-09T18:21:33.524Z,47.30
2018-07-09T18:24:02.061Z,47.40
2018-07-09T18:28:58.923Z,47.80
2018-07-09T18:31:28.729Z,48.00
2018-07-09T18:33:57.159Z,48.10
2018-07-09T18:36:25.208Z,48.20
2018-07-09T18:38:53.304Z,48.40
2018-07-09T18:41:21.425Z,48.50
2018-07-09T18:43:49.474Z,48.50
2018-07-09T18:46:21.570Z,48.80
2018-07-09T18:48:49.826Z,49.00
2018-07-09T18:51:18.984Z,49.20
2018-07-09T18:53:49.408Z,49.50
2018-07-09T18:56:17.890Z,49.50
2018-07-09T18:58:45.976Z,49.80
2018-07-09T19:01:18.507Z,50.00
2018-07-09T19:03:46.574Z,50.30
2018-07-09T19:06:26.378Z,50.20
2018-07-09T19:08:59.554Z,50.50
2018-07-09T19:11:28.191Z,50.70
2018-07-09T19:13:56.605Z,50.70
2018-07-09T19:16:31.539Z,50.90
2018-07-09T19:19:10.725Z,50.90
2018-07-09T19:21:51.931Z,51.20
2018-07-09T19:24:18.701Z,51.50
2018-07-09T19:26:45.561Z,51.20
2018-07-09T19:29:12.311Z,51.40
2018-07-09T19:31:39.074Z,51.50
2018-07-09T19:34:06.154Z,51.70
2018-07-09T19:36:32.941Z,51.70
2018-07-09T19:38:59.703Z,52.00
2018-07-09T19:41:26.904Z,52.30
2018-07-09T19:43:54.741Z,52.50
2018-07-09T19:46:21.877Z,52.90
2018-07-09T19:48:50.505Z,52.90
2018-07-09T19:51:17.652Z,52.80
2018-07-09T19:53:44.362Z,52.90
2018-07-09T19:56:11.197Z,52.90
2018-07-09T19:58:37.831Z,53.20
2018-07-09T20:01:04.487Z,53.20
2018-07-09T20:03:31.422Z,53.30
2018-07-09T20:08:32.658Z,53.50
2018-07-09T20:11:05.007Z,53.60
2018-07-09T20:14:03.356Z,53.70
2018-07-09T20:17:35.465Z,53.40
2018-07-09T20:20:02.560Z,53.70
2018-07-09T20:22:29.501Z,53.90
2018-07-09T20:24:56.856Z,54.00
2018-07-09T20:27:23.617Z,54.50
2018-07-09T20:29:50.297Z,54.40
2018-07-09T20:32:20.106Z,54.40
2018-07-09T20:37:13.952Z,55.20
2018-07-09T20:39:40.594Z,55.00
2018-07-09T20:42:07.388Z,55.00
2018-07-09T20:44:34.139Z,55.30
2018-07-09T20:47:00.838Z,56.30
2018-07-09T20:49:27.594Z,56.00
2018-07-09T20:51:54.333Z,55.90
2018-07-09T20:54:20.972Z,56.00
2018-07-09T20:56:47.579Z,56.50
2018-07-09T20:59:14.157Z,56.60
2018-07-09T21:01:40.845Z,56.60
2018-07-09T21:04:12.908Z,56.70
2018-07-09T21:06:39.648Z,56.70
2018-07-09T21:09:06.282Z,56.90
2018-07-09T21:11:33.005Z,57.10
2018-07-09T21:13:59.689Z,57.30
2018-07-09T21:16:26.372Z,57.30
2018-07-09T21:18:52.978Z,57.80
2018-07-09T21:21:19.664Z,58.70
2018-07-09T21:23:46.376Z,58.60
2018-07-09T21:26:13.032Z,59.00
2018-07-09T21:28:42.961Z,59.40
2018-07-09T21:31:09.586Z,59.60
2018-07-09T21:33:36.409Z,59.20
2018-07-09T21:36:03.213Z,59.40
2018-07-09T21:38:29.813Z,59.50
2018-07-09T21:40:56.578Z,59.90
2018-07-09T21:43:23.645Z,60.10
2018-07-09T21:45:50.344Z,60.50
2018-07-09T21:48:17.438Z,60.80
2018-07-09T21:50:44.044Z,61.00
2018-07-09T21:53:11.038Z,61.10
2018-07-09T21:55:37.753Z,61.30
2018-07-09T21:58:04.461Z,61.50
2018-07-09T22:02:58.427Z,61.60
2018-07-09T22:05:25.383Z,61.80
2018-07-09T22:07:52.102Z,61.80
2018-07-09T22:10:18.772Z,61.80
2018-07-09T22:12:45.590Z,62.10
2018-07-09T22:15:12.347Z,62.20
2018-07-09T22:17:39.536Z,62.40
2018-07-09T22:20:06.402Z,62.50
2018-07-09T22:22:33.408Z,62.30
2018-07-09T22:25:00.090Z,62.20
2018-07-09T22:27:26.770Z,62.40
2018-07-09T22:29:53.460Z,62.40
2018-07-09T22:32:21.625Z,62.50
2018-07-09T22:34:49.549Z,62.60
2018-07-09T22:37:17.758Z,62.80
2018-07-09T22:39:45.869Z,62.60
2018-07-09T22:42:13.843Z,62.60
2018-07-09T22:44:41.907Z,62.70
2018-07-09T22:47:09.884Z,62.90
2018-07-09T22:49:37.947Z,63.20
2018-07-09T22:52:06.350Z,63.80
2018-07-09T22:54:34.430Z,64.00
2018-07-09T22:57:02.319Z,63.90
2018-07-09T22:59:30.381Z,64.20
2018-07-09T23:01:58.337Z,64.30
2018-07-09T23:04:26.908Z,64.50
2018-07-09T23:06:54.828Z,65.30
2018-07-09T23:09:57.668Z,64.70
2018-07-09T23:17:16.301Z,64.20
2018-07-09T23:22:20.030Z,63.90
2018-07-09T23:24:46.675Z,65.00
2018-07-09T23:27:13.409Z,65.70
2018-07-09T23:29:40.069Z,65.00
2018-07-09T23:32:06.755Z,65.30
2018-07-09T23:34:33.481Z,65.20
2018-07-09T23:37:00.280Z,64.30
2018-07-09T23:39:26.975Z,64.30
2018-07-09T23:41:53.801Z,64.40
2018-07-09T23:44:20.501Z,64.40
2018-07-09T23:46:47.218Z,64.60
2018-07-09T23:49:13.938Z,64.90
2018-07-09T23:51:40.618Z,65.30
2018-07-09T23:54:07.251Z,65.40
2018-07-09T23:58:50.880Z,65.30
